sensor_id;sensor_type;location;lat;lon;timestamp;temperature;humidity
17954;DHT22;9102;53.548;9.926;2023-04-29T00:00:40;8.80;99.90
17954;DHT22;9102;53.548;9.926;2023-04-29T00:03:07;8.80;99.90
17954;DHT22;9102;53.548;9.926;2023-04-29T00:05:35;8.80;99.90
17954;DHT22;9102;53.548;9.926;2023-04-29T00:08:02;8.80;99.90
17954;DHT22;9102;53.548;9.926;2023-04-29T00:10:29;8.70;99.90
17954;DHT22;9102;53.548;9.926;2023-04-29T00:12:56;8.70;99.90
17954;DHT22;9102;53.548;9.926;2023-04-29T00:15:22;8.80;99.90
17954;DHT22;9102;53.548;9.926;2023-04-29T00:17:49;8.70;99.90
17954;DHT22;9102;53.548;9.926;2023-04-29T00:20:16;8.70;99.90
17954;DHT22;9102;53.548;9.926;2023-04-29T00:22:44;8.70;99.90
17954;DHT22;9102;53.548;9.926;2023-04-29T00:25:11;8.70;99.90
17954;DHT22;9102;53.548;9.926;2023-04-29T00:27:39;8.70;99.90
17954;DHT22;9102;53.548;9.926;2023-04-29T00:30:13;8.70;99.90
17954;DHT22;9102;53.548;9.926;2023-04-29T00:32:40;8.70;99.90
17954;DHT22;9102;53.548;9.926;2023-04-29T00:35:08;8.70;99.90
17954;DHT22;9102;53.548;9.926;2023-04-29T00:37:35;8.70;99.90
17954;DHT22;9102;53.548;9.926;2023-04-29T00:40:04;8.70;99.90
17954;DHT22;9102;53.548;9.926;2023-04-29T00:42:33;8.80;99.90
17954;DHT22;9102;53.548;9.926;2023-04-29T00:44:59;8.70;99.90
17954;DHT22;9102;53.548;9.926;2023-04-29T00:47:26;8.70;99.90
17954;DHT22;9102;53.548;9.926;2023-04-29T00:49:53;8.70;99.90
17954;DHT22;9102;53.548;9.926;2023-04-29T00:52:20;8.60;99.90
17954;DHT22;9102;53.548;9.926;2023-04-29T00:54:48;8.60;99.90
17954;DHT22;9102;53.548;9.926;2023-04-29T00:57:18;8.60;99.90
17954;DHT22;9102;53.548;9.926;2023-04-29T00:59:45;8.60;99.90
17954;DHT22;9102;53.548;9.926;2023-04-29T01:02:13;8.60;99.90
17954;DHT22;9102;53.548;9.926;2023-04-29T01:04:39;8.60;99.90
17954;DHT22;9102;53.548;9.926;2023-04-29T01:07:12;8.60;99.90
17954;DHT22;9102;53.548;9.926;2023-04-29T01:09:57;8.60;99.90
17954;DHT22;9102;53.548;9.926;2023-04-29T01:12:32;8.60;99.90
17954;DHT22;9102;53.548;9.926;2023-04-29T01:15:04;8.50;99.90
17954;DHT22;9102;53.548;9.926;2023-04-29T01:17:38;8.60;99.90
17954;DHT22;9102;53.548;9.926;2023-04-29T01:20:08;8.50;99.90
17954;DHT22;9102;53.548;9.926;2023-04-29T01:22:35;8.50;99.90
17954;DHT22;9102;53.548;9.926;2023-04-29T01:25:05;8.50;99.90
17954;DHT22;9102;53.548;9.926;2023-04-29T01:27:36;8.50;99.90
17954;DHT22;9102;53.548;9.926;2023-04-29T01:30:09;8.50;99.90
17954;DHT22;9102;53.548;9.926;2023-04-29T01:32:45;8.50;99.90
17954;DHT22;9102;53.548;9.926;2023-04-29T01:35:29;8.50;99.90
17954;DHT22;9102;53.548;9.926;2023-04-29T01:38:04;8.50;99.90
17954;DHT22;9102;53.548;9.926;2023-04-29T01:40:40;8.50;99.90
17954;DHT22;9102;53.548;9.926;2023-04-29T01:43:10;8.50;99.90
17954;DHT22;9102;53.548;9.926;2023-04-29T01:45:38;8.50;99.90
17954;DHT22;9102;53.548;9.926;2023-04-29T01:48:07;8.50;99.90
17954;DHT22;9102;53.548;9.926;2023-04-29T01:50:35;8.50;99.90
17954;DHT22;9102;53.548;9.926;2023-04-29T01:53:01;8.50;99.90
17954;DHT22;9102;53.548;9.926;2023-04-29T01:55:28;8.50;99.90
17954;DHT22;9102;53.548;9.926;2023-04-29T01:57:56;8.40;99.90
17954;DHT22;9102;53.548;9.926;2023-04-29T02:00:23;8.40;99.90
17954;DHT22;9102;53.548;9.926;2023-04-29T02:02:50;8.50;99.90
17954;DHT22;9102;53.548;9.926;2023-04-29T02:05:17;8.50;99.90
17954;DHT22;9102;53.548;9.926;2023-04-29T02:07:44;8.50;99.90
17954;DHT22;9102;53.548;9.926;2023-04-29T02:10:10;8.40;99.90
17954;DHT22;9102;53.548;9.926;2023-04-29T02:12:37;8.40;99.90
17954;DHT22;9102;53.548;9.926;2023-04-29T02:15:07;8.40;99.90
17954;DHT22;9102;53.548;9.926;2023-04-29T02:17:34;8.50;99.90
17954;DHT22;9102;53.548;9.926;2023-04-29T02:20:01;8.40;99.90
17954;DHT22;9102;53.548;9.926;2023-04-29T02:22:28;8.50;99.90
17954;DHT22;9102;53.548;9.926;2023-04-29T02:24:54;8.50;99.90
17954;DHT22;9102;53.548;9.926;2023-04-29T02:27:22;8.50;99.90
17954;DHT22;9102;53.548;9.926;2023-04-29T02:29:49;8.50;99.90
17954;DHT22;9102;53.548;9.926;2023-04-29T02:32:18;8.50;99.90
17954;DHT22;9102;53.548;9.926;2023-04-29T02:34:45;8.40;99.90
17954;DHT22;9102;53.548;9.926;2023-04-29T02:37:12;8.40;99.90
17954;DHT22;9102;53.548;9.926;2023-04-29T02:39:40;8.40;99.90
17954;DHT22;9102;53.548;9.926;2023-04-29T02:42:07;8.50;99.90
17954;DHT22;9102;53.548;9.926;2023-04-29T02:44:33;8.40;99.90
17954;DHT22;9102;53.548;9.926;2023-04-29T02:47:00;8.40;99.90
17954;DHT22;9102;53.548;9.926;2023-04-29T02:49:29;8.40;99.90
17954;DHT22;9102;53.548;9.926;2023-04-29T02:51:55;8.40;99.90
17954;DHT22;9102;53.548;9.926;2023-04-29T02:54:22;8.40;99.90
17954;DHT22;9102;53.548;9.926;2023-04-29T02:56:49;8.40;99.90
17954;DHT22;9102;53.548;9.926;2023-04-29T02:59:16;8.40;99.90
17954;DHT22;9102;53.548;9.926;2023-04-29T03:01:43;8.40;99.90
17954;DHT22;9102;53.548;9.926;2023-04-29T03:04:10;8.40;99.90
17954;DHT22;9102;53.548;9.926;2023-04-29T03:06:38;8.40;99.90
17954;DHT22;9102;53.548;9.926;2023-04-29T03:09:06;8.40;99.90
17954;DHT22;9102;53.548;9.926;2023-04-29T03:11:33;8.40;99.90
17954;DHT22;9102;53.548;9.926;2023-04-29T03:13:59;8.40;99.90
17954;DHT22;9102;53.548;9.926;2023-04-29T03:16:26;8.40;99.90
17954;DHT22;9102;53.548;9.926;2023-04-29T03:18:53;8.30;99.90
17954;DHT22;9102;53.548;9.926;2023-04-29T03:21:20;8.30;99.90
17954;DHT22;9102;53.548;9.926;2023-04-29T03:23:48;8.30;99.90
17954;DHT22;9102;53.548;9.926;2023-04-29T03:26:15;8.30;99.90
17954;DHT22;9102;53.548;9.926;2023-04-29T03:28:42;8.30;99.90
17954;DHT22;9102;53.548;9.926;2023-04-29T03:31:09;8.30;99.90
17954;DHT22;9102;53.548;9.926;2023-04-29T03:33:36;8.30;99.90
17954;DHT22;9102;53.548;9.926;2023-04-29T03:36:03;8.30;99.90
17954;DHT22;9102;53.548;9.926;2023-04-29T03:38:30;8.30;99.90
17954;DHT22;9102;53.548;9.926;2023-04-29T03:40:58;8.40;99.90
17954;DHT22;9102;53.548;9.926;2023-04-29T03:43:25;8.30;99.90
17954;DHT22;9102;53.548;9.926;2023-04-29T03:45:52;8.30;99.90
17954;DHT22;9102;53.548;9.926;2023-04-29T03:48:19;8.40;99.90
17954;DHT22;9102;53.548;9.926;2023-04-29T03:50:46;8.30;99.90
17954;DHT22;9102;53.548;9.926;2023-04-29T03:53:13;8.30;99.90
17954;DHT22;9102;53.548;9.926;2023-04-29T03:55:40;8.30;99.90
17954;DHT22;9102;53.548;9.926;2023-04-29T03:58:08;8.30;99.90
17954;DHT22;9102;53.548;9.926;2023-04-29T04:00:35;8.30;99.90
17954;DHT22;9102;53.548;9.926;2023-04-29T04:03:01;8.30;99.90
17954;DHT22;9102;53.548;9.926;2023-04-29T04:05:28;8.30;99.90
17954;DHT22;9102;53.548;9.926;2023-04-29T04:07:55;8.40;99.90
17954;DHT22;9102;53.548;9.926;2023-04-29T04:10:22;8.40;99.90
17954;DHT22;9102;53.548;9.926;2023-04-29T04:12:48;8.40;99.90
17954;DHT22;9102;53.548;9.926;2023-04-29T04:15:17;8.40;99.90
17954;DHT22;9102;53.548;9.926;2023-04-29T04:17:43;8.40;99.90
17954;DHT22;9102;53.548;9.926;2023-04-29T04:20:11;8.40;99.90
17954;DHT22;9102;53.548;9.926;2023-04-29T04:22:38;8.30;99.90
17954;DHT22;9102;53.548;9.926;2023-04-29T04:25:06;8.30;99.90
17954;DHT22;9102;53.548;9.926;2023-04-29T04:27:33;8.30;99.90
17954;DHT22;9102;53.548;9.926;2023-04-29T04:30:00;8.20;99.90
17954;DHT22;9102;53.548;9.926;2023-04-29T04:32:28;8.20;99.90
17954;DHT22;9102;53.548;9.926;2023-04-29T04:34:56;8.20;99.90
17954;DHT22;9102;53.548;9.926;2023-04-29T04:37:23;8.20;99.90
17954;DHT22;9102;53.548;9.926;2023-04-29T04:39:49;8.20;99.90
17954;DHT22;9102;53.548;9.926;2023-04-29T04:42:16;8.10;99.90
17954;DHT22;9102;53.548;9.926;2023-04-29T04:44:43;8.30;99.90
17954;DHT22;9102;53.548;9.926;2023-04-29T04:47:10;8.30;99.90
17954;DHT22;9102;53.548;9.926;2023-04-29T04:49:38;8.30;99.90
17954;DHT22;9102;53.548;9.926;2023-04-29T04:52:05;8.30;99.90
17954;DHT22;9102;53.548;9.926;2023-04-29T04:54:32;8.30;99.90
17954;DHT22;9102;53.548;9.926;2023-04-29T04:56:59;8.40;99.90
17954;DHT22;9102;53.548;9.926;2023-04-29T04:59:29;8.40;99.90
17954;DHT22;9102;53.548;9.926;2023-04-29T05:01:56;8.40;99.90
17954;DHT22;9102;53.548;9.926;2023-04-29T05:04:23;8.50;99.90
17954;DHT22;9102;53.548;9.926;2023-04-29T05:06:51;8.50;99.90
17954;DHT22;9102;53.548;9.926;2023-04-29T05:09:18;8.40;99.90
17954;DHT22;9102;53.548;9.926;2023-04-29T05:11:45;8.50;99.90
17954;DHT22;9102;53.548;9.926;2023-04-29T05:14:11;8.50;99.90
17954;DHT22;9102;53.548;9.926;2023-04-29T05:16:38;8.50;99.90
17954;DHT22;9102;53.548;9.926;2023-04-29T05:19:05;8.50;99.90
17954;DHT22;9102;53.548;9.926;2023-04-29T05:21:34;8.50;99.90
17954;DHT22;9102;53.548;9.926;2023-04-29T05:24:02;8.70;99.90
17954;DHT22;9102;53.548;9.926;2023-04-29T05:26:29;8.70;99.90
17954;DHT22;9102;53.548;9.926;2023-04-29T05:28:56;8.80;99.90
17954;DHT22;9102;53.548;9.926;2023-04-29T05:31:22;8.80;99.90
17954;DHT22;9102;53.548;9.926;2023-04-29T05:33:50;9.00;99.90
17954;DHT22;9102;53.548;9.926;2023-04-29T05:36:17;9.10;99.90
17954;DHT22;9102;53.548;9.926;2023-04-29T05:38:44;9.10;99.90
17954;DHT22;9102;53.548;9.926;2023-04-29T05:41:12;9.00;99.90
17954;DHT22;9102;53.548;9.926;2023-04-29T05:43:39;9.00;99.90
17954;DHT22;9102;53.548;9.926;2023-04-29T05:46:06;9.00;99.90
17954;DHT22;9102;53.548;9.926;2023-04-29T05:48:33;9.00;99.90
17954;DHT22;9102;53.548;9.926;2023-04-29T05:51:00;8.90;99.90
17954;DHT22;9102;53.548;9.926;2023-04-29T05:53:27;9.00;99.90
17954;DHT22;9102;53.548;9.926;2023-04-29T05:55:53;9.00;99.90
17954;DHT22;9102;53.548;9.926;2023-04-29T05:58:22;9.00;99.90
17954;DHT22;9102;53.548;9.926;2023-04-29T06:00:50;9.00;99.90
17954;DHT22;9102;53.548;9.926;2023-04-29T06:03:16;9.00;99.90
17954;DHT22;9102;53.548;9.926;2023-04-29T06:05:43;9.10;99.90
17954;DHT22;9102;53.548;9.926;2023-04-29T06:08:10;9.10;99.90
17954;DHT22;9102;53.548;9.926;2023-04-29T06:10:37;9.20;99.90
17954;DHT22;9102;53.548;9.926;2023-04-29T06:13:04;9.30;99.90
17954;DHT22;9102;53.548;9.926;2023-04-29T06:15:32;9.50;99.90
17954;DHT22;9102;53.548;9.926;2023-04-29T06:17:59;9.60;99.90
17954;DHT22;9102;53.548;9.926;2023-04-29T06:20:26;9.70;99.90
17954;DHT22;9102;53.548;9.926;2023-04-29T06:22:53;9.80;99.90
17954;DHT22;9102;53.548;9.926;2023-04-29T06:25:19;9.70;99.90
17954;DHT22;9102;53.548;9.926;2023-04-29T06:27:46;9.60;99.90
17954;DHT22;9102;53.548;9.926;2023-04-29T06:30:14;9.60;99.90
17954;DHT22;9102;53.548;9.926;2023-04-29T06:32:42;9.50;99.90
17954;DHT22;9102;53.548;9.926;2023-04-29T06:35:09;9.50;99.90
17954;DHT22;9102;53.548;9.926;2023-04-29T06:37:36;9.50;99.90
17954;DHT22;9102;53.548;9.926;2023-04-29T06:40:03;9.60;99.90
17954;DHT22;9102;53.548;9.926;2023-04-29T06:42:30;9.50;99.90
17954;DHT22;9102;53.548;9.926;2023-04-29T06:44:57;9.60;99.90
17954;DHT22;9102;53.548;9.926;2023-04-29T06:47:24;9.60;99.90
17954;DHT22;9102;53.548;9.926;2023-04-29T06:49:52;9.60;99.90
17954;DHT22;9102;53.548;9.926;2023-04-29T06:52:19;9.70;99.90
17954;DHT22;9102;53.548;9.926;2023-04-29T06:54:46;9.70;99.90
17954;DHT22;9102;53.548;9.926;2023-04-29T06:57:13;9.80;99.90
17954;DHT22;9102;53.548;9.926;2023-04-29T06:59:40;9.80;99.90
17954;DHT22;9102;53.548;9.926;2023-04-29T07:02:07;9.80;99.90
17954;DHT22;9102;53.548;9.926;2023-04-29T07:04:33;9.80;99.90
17954;DHT22;9102;53.548;9.926;2023-04-29T07:07:03;9.90;99.90
17954;DHT22;9102;53.548;9.926;2023-04-29T07:09:30;9.80;99.90
17954;DHT22;9102;53.548;9.926;2023-04-29T07:11:56;9.90;99.90
17954;DHT22;9102;53.548;9.926;2023-04-29T07:14:23;10.00;99.90
17954;DHT22;9102;53.548;9.926;2023-04-29T07:16:53;10.00;99.90
17954;DHT22;9102;53.548;9.926;2023-04-29T07:19:20;10.10;99.90
17954;DHT22;9102;53.548;9.926;2023-04-29T07:21:47;10.10;99.90
17954;DHT22;9102;53.548;9.926;2023-04-29T07:24:15;10.20;99.90
17954;DHT22;9102;53.548;9.926;2023-04-29T07:26:42;10.30;99.90
17954;DHT22;9102;53.548;9.926;2023-04-29T07:29:12;10.30;99.90
17954;DHT22;9102;53.548;9.926;2023-04-29T07:31:39;10.40;99.90
17954;DHT22;9102;53.548;9.926;2023-04-29T07:34:06;10.30;99.90
17954;DHT22;9102;53.548;9.926;2023-04-29T07:36:33;10.40;99.90
17954;DHT22;9102;53.548;9.926;2023-04-29T07:39:02;10.40;99.90
17954;DHT22;9102;53.548;9.926;2023-04-29T07:41:33;10.40;99.90
17954;DHT22;9102;53.548;9.926;2023-04-29T07:44:00;10.50;99.90
17954;DHT22;9102;53.548;9.926;2023-04-29T07:46:26;10.50;99.90
17954;DHT22;9102;53.548;9.926;2023-04-29T07:48:56;10.70;99.90
17954;DHT22;9102;53.548;9.926;2023-04-29T07:51:23;10.80;99.90
17954;DHT22;9102;53.548;9.926;2023-04-29T07:53:53;10.90;99.90
17954;DHT22;9102;53.548;9.926;2023-04-29T07:56:20;10.90;99.90
17954;DHT22;9102;53.548;9.926;2023-04-29T07:58:49;11.10;99.90
17954;DHT22;9102;53.548;9.926;2023-04-29T08:01:15;11.10;99.90
17954;DHT22;9102;53.548;9.926;2023-04-29T08:03:42;11.20;99.90
17954;DHT22;9102;53.548;9.926;2023-04-29T08:06:10;11.20;99.90
17954;DHT22;9102;53.548;9.926;2023-04-29T08:08:37;11.40;99.90
17954;DHT22;9102;53.548;9.926;2023-04-29T08:11:04;11.70;99.90
17954;DHT22;9102;53.548;9.926;2023-04-29T08:13:31;11.70;99.90
17954;DHT22;9102;53.548;9.926;2023-04-29T08:15:59;11.70;99.90
17954;DHT22;9102;53.548;9.926;2023-04-29T08:18:26;11.50;99.90
17954;DHT22;9102;53.548;9.926;2023-04-29T08:20:52;11.50;99.90
17954;DHT22;9102;53.548;9.926;2023-04-29T08:23:19;11.40;99.90
17954;DHT22;9102;53.548;9.926;2023-04-29T08:25:57;11.50;99.90
17954;DHT22;9102;53.548;9.926;2023-04-29T08:28:27;11.60;99.90
17954;DHT22;9102;53.548;9.926;2023-04-29T08:30:54;11.60;99.90
17954;DHT22;9102;53.548;9.926;2023-04-29T08:33:23;11.40;99.90
17954;DHT22;9102;53.548;9.926;2023-04-29T08:35:56;11.40;99.90
17954;DHT22;9102;53.548;9.926;2023-04-29T08:38:23;11.50;99.90
17954;DHT22;9102;53.548;9.926;2023-04-29T08:40:50;11.60;99.90
17954;DHT22;9102;53.548;9.926;2023-04-29T08:43:18;11.50;99.90
17954;DHT22;9102;53.548;9.926;2023-04-29T08:45:47;11.60;99.90
17954;DHT22;9102;53.548;9.926;2023-04-29T08:48:15;11.60;99.90
17954;DHT22;9102;53.548;9.926;2023-04-29T08:50:43;11.70;99.90
17954;DHT22;9102;53.548;9.926;2023-04-29T08:53:12;11.70;99.90
17954;DHT22;9102;53.548;9.926;2023-04-29T08:55:41;11.90;99.90
17954;DHT22;9102;53.548;9.926;2023-04-29T08:58:08;12.00;99.90
17954;DHT22;9102;53.548;9.926;2023-04-29T09:00:35;12.20;99.90
17954;DHT22;9102;53.548;9.926;2023-04-29T09:03:12;12.30;99.90
17954;DHT22;9102;53.548;9.926;2023-04-29T09:05:40;12.40;99.90
17954;DHT22;9102;53.548;9.926;2023-04-29T09:08:10;12.40;99.90
17954;DHT22;9102;53.548;9.926;2023-04-29T09:10:38;12.40;99.90
17954;DHT22;9102;53.548;9.926;2023-04-29T09:13:07;12.40;99.90
17954;DHT22;9102;53.548;9.926;2023-04-29T09:15:35;12.40;99.90
17954;DHT22;9102;53.548;9.926;2023-04-29T09:18:04;12.50;99.90
17954;DHT22;9102;53.548;9.926;2023-04-29T09:20:31;12.60;99.90
17954;DHT22;9102;53.548;9.926;2023-04-29T09:23:00;12.40;99.90
17954;DHT22;9102;53.548;9.926;2023-04-29T09:25:29;12.50;99.90
17954;DHT22;9102;53.548;9.926;2023-04-29T09:27:56;12.60;99.90
17954;DHT22;9102;53.548;9.926;2023-04-29T09:30:23;12.70;99.90
17954;DHT22;9102;53.548;9.926;2023-04-29T09:33:05;12.80;99.90
17954;DHT22;9102;53.548;9.926;2023-04-29T09:35:33;12.90;99.90
17954;DHT22;9102;53.548;9.926;2023-04-29T09:38:11;13.00;99.90
17954;DHT22;9102;53.548;9.926;2023-04-29T09:40:40;13.00;99.90
17954;DHT22;9102;53.548;9.926;2023-04-29T09:43:12;13.00;99.90
17954;DHT22;9102;53.548;9.926;2023-04-29T09:45:41;13.00;99.90
17954;DHT22;9102;53.548;9.926;2023-04-29T09:48:09;13.10;99.90
17954;DHT22;9102;53.548;9.926;2023-04-29T09:50:37;13.20;99.90
17954;DHT22;9102;53.548;9.926;2023-04-29T09:53:05;13.20;99.90
17954;DHT22;9102;53.548;9.926;2023-04-29T09:55:33;13.40;99.90
17954;DHT22;9102;53.548;9.926;2023-04-29T09:58:01;13.40;99.90
17954;DHT22;9102;53.548;9.926;2023-04-29T10:00:30;13.50;99.90
17954;DHT22;9102;53.548;9.926;2023-04-29T10:02:59;13.60;99.90
17954;DHT22;9102;53.548;9.926;2023-04-29T10:05:27;13.70;99.90
17954;DHT22;9102;53.548;9.926;2023-04-29T10:07:55;13.70;99.90
17954;DHT22;9102;53.548;9.926;2023-04-29T10:10:23;13.70;99.90
17954;DHT22;9102;53.548;9.926;2023-04-29T10:12:52;13.80;99.90
17954;DHT22;9102;53.548;9.926;2023-04-29T10:15:28;13.70;99.90
17954;DHT22;9102;53.548;9.926;2023-04-29T10:17:59;13.80;99.90
17954;DHT22;9102;53.548;9.926;2023-04-29T10:20:28;13.80;99.90
17954;DHT22;9102;53.548;9.926;2023-04-29T10:22:55;13.90;99.90
17954;DHT22;9102;53.548;9.926;2023-04-29T10:25:26;13.90;99.90
17954;DHT22;9102;53.548;9.926;2023-04-29T10:27:54;13.90;99.90
17954;DHT22;9102;53.548;9.926;2023-04-29T10:30:22;13.90;99.90
17954;DHT22;9102;53.548;9.926;2023-04-29T10:32:50;14.10;99.90
17954;DHT22;9102;53.548;9.926;2023-04-29T10:35:18;14.30;99.90
17954;DHT22;9102;53.548;9.926;2023-04-29T10:37:48;14.30;99.90
17954;DHT22;9102;53.548;9.926;2023-04-29T10:40:16;14.30;99.90
17954;DHT22;9102;53.548;9.926;2023-04-29T10:42:47;14.10;99.90
17954;DHT22;9102;53.548;9.926;2023-04-29T10:45:22;14.20;99.90
17954;DHT22;9102;53.548;9.926;2023-04-29T10:48:21;14.30;99.90
17954;DHT22;9102;53.548;9.926;2023-04-29T10:51:07;14.20;99.90
17954;DHT22;9102;53.548;9.926;2023-04-29T10:53:34;14.30;99.90
17954;DHT22;9102;53.548;9.926;2023-04-29T10:56:04;14.50;99.90
17954;DHT22;9102;53.548;9.926;2023-04-29T10:58:37;14.70;99.90
17954;DHT22;9102;53.548;9.926;2023-04-29T11:01:06;14.70;99.90
17954;DHT22;9102;53.548;9.926;2023-04-29T11:03:49;14.60;99.90
17954;DHT22;9102;53.548;9.926;2023-04-29T11:06:19;14.80;99.90
17954;DHT22;9102;53.548;9.926;2023-04-29T11:08:46;14.80;99.90
17954;DHT22;9102;53.548;9.926;2023-04-29T11:11:13;14.90;99.90
17954;DHT22;9102;53.548;9.926;2023-04-29T11:13:40;14.70;99.90
17954;DHT22;9102;53.548;9.926;2023-04-29T11:16:12;14.70;99.90
17954;DHT22;9102;53.548;9.926;2023-04-29T11:19:03;14.70;99.90
17954;DHT22;9102;53.548;9.926;2023-04-29T11:21:33;14.70;99.90
17954;DHT22;9102;53.548;9.926;2023-04-29T11:24:00;14.70;99.90
17954;DHT22;9102;53.548;9.926;2023-04-29T11:26:27;14.90;99.90
17954;DHT22;9102;53.548;9.926;2023-04-29T11:28:55;15.00;99.90
17954;DHT22;9102;53.548;9.926;2023-04-29T11:31:29;14.90;99.90
17954;DHT22;9102;53.548;9.926;2023-04-29T11:33:56;14.70;99.90
17954;DHT22;9102;53.548;9.926;2023-04-29T11:36:23;14.70;99.90
17954;DHT22;9102;53.548;9.926;2023-04-29T11:38:50;14.80;99.90
17954;DHT22;9102;53.548;9.926;2023-04-29T11:41:17;14.90;99.90
17954;DHT22;9102;53.548;9.926;2023-04-29T11:43:45;14.70;99.90
17954;DHT22;9102;53.548;9.926;2023-04-29T11:46:13;14.70;99.90
17954;DHT22;9102;53.548;9.926;2023-04-29T11:48:46;14.70;99.90
17954;DHT22;9102;53.548;9.926;2023-04-29T11:51:14;14.90;99.90
17954;DHT22;9102;53.548;9.926;2023-04-29T11:53:41;15.00;99.90
17954;DHT22;9102;53.548;9.926;2023-04-29T11:56:09;15.00;99.90
17954;DHT22;9102;53.548;9.926;2023-04-29T11:58:36;15.10;99.90
17954;DHT22;9102;53.548;9.926;2023-04-29T12:01:04;15.00;99.90
17954;DHT22;9102;53.548;9.926;2023-04-29T12:03:31;14.90;99.90
17954;DHT22;9102;53.548;9.926;2023-04-29T12:06:01;14.70;99.90
17954;DHT22;9102;53.548;9.926;2023-04-29T12:08:28;15.00;99.90
17954;DHT22;9102;53.548;9.926;2023-04-29T12:10:58;15.30;99.90
17954;DHT22;9102;53.548;9.926;2023-04-29T12:13:27;15.50;99.90
17954;DHT22;9102;53.548;9.926;2023-04-29T12:15:56;15.50;99.90
17954;DHT22;9102;53.548;9.926;2023-04-29T12:18:24;15.40;99.90
17954;DHT22;9102;53.548;9.926;2023-04-29T12:20:52;15.20;99.90
17954;DHT22;9102;53.548;9.926;2023-04-29T12:23:23;15.00;99.90
17954;DHT22;9102;53.548;9.926;2023-04-29T12:25:52;14.90;99.90
17954;DHT22;9102;53.548;9.926;2023-04-29T12:28:20;15.00;99.90
17954;DHT22;9102;53.548;9.926;2023-04-29T12:30:48;15.00;99.90
17954;DHT22;9102;53.548;9.926;2023-04-29T12:33:18;15.00;99.90
17954;DHT22;9102;53.548;9.926;2023-04-29T12:35:46;15.00;99.90
17954;DHT22;9102;53.548;9.926;2023-04-29T12:38:15;15.00;99.90
17954;DHT22;9102;53.548;9.926;2023-04-29T12:40:45;14.60;99.90
17954;DHT22;9102;53.548;9.926;2023-04-29T12:43:11;14.60;99.90
17954;DHT22;9102;53.548;9.926;2023-04-29T12:45:39;14.80;99.90
17954;DHT22;9102;53.548;9.926;2023-04-29T12:48:06;15.00;99.90
17954;DHT22;9102;53.548;9.926;2023-04-29T12:50:34;15.40;99.90
17954;DHT22;9102;53.548;9.926;2023-04-29T12:53:02;15.70;99.90
17954;DHT22;9102;53.548;9.926;2023-04-29T12:55:31;15.70;99.90
17954;DHT22;9102;53.548;9.926;2023-04-29T12:58:00;15.40;99.90
17954;DHT22;9102;53.548;9.926;2023-04-29T13:00:27;15.20;99.90
17954;DHT22;9102;53.548;9.926;2023-04-29T13:02:54;15.10;99.90
17954;DHT22;9102;53.548;9.926;2023-04-29T13:05:21;15.20;99.90
17954;DHT22;9102;53.548;9.926;2023-04-29T13:07:48;15.20;99.90
17954;DHT22;9102;53.548;9.926;2023-04-29T13:10:14;15.10;99.90
17954;DHT22;9102;53.548;9.926;2023-04-29T13:12:42;15.00;99.90
17954;DHT22;9102;53.548;9.926;2023-04-29T13:15:10;14.90;99.90
17954;DHT22;9102;53.548;9.926;2023-04-29T13:17:38;14.70;99.90
17954;DHT22;9102;53.548;9.926;2023-04-29T13:20:06;14.80;99.90
17954;DHT22;9102;53.548;9.926;2023-04-29T13:22:35;14.80;99.90
17954;DHT22;9102;53.548;9.926;2023-04-29T13:25:03;14.70;99.10
17954;DHT22;9102;53.548;9.926;2023-04-29T13:27:30;14.70;96.10
17954;DHT22;9102;53.548;9.926;2023-04-29T13:29:57;14.70;96.80
17954;DHT22;9102;53.548;9.926;2023-04-29T13:32:25;14.80;96.60
17954;DHT22;9102;53.548;9.926;2023-04-29T13:34:52;14.80;97.30
17954;DHT22;9102;53.548;9.926;2023-04-29T13:37:19;14.70;99.50
17954;DHT22;9102;53.548;9.926;2023-04-29T13:39:46;14.80;99.90
17954;DHT22;9102;53.548;9.926;2023-04-29T13:42:13;14.90;99.90
17954;DHT22;9102;53.548;9.926;2023-04-29T13:44:40;15.00;99.90
17954;DHT22;9102;53.548;9.926;2023-04-29T13:47:10;15.00;98.40
17954;DHT22;9102;53.548;9.926;2023-04-29T13:49:39;15.00;99.00
17954;DHT22;9102;53.548;9.926;2023-04-29T13:52:06;14.80;99.90
17954;DHT22;9102;53.548;9.926;2023-04-29T13:54:33;14.60;99.90
17954;DHT22;9102;53.548;9.926;2023-04-29T13:57:00;14.60;99.90
17954;DHT22;9102;53.548;9.926;2023-04-29T13:59:28;14.70;99.90
17954;DHT22;9102;53.548;9.926;2023-04-29T14:01:55;14.60;99.90
17954;DHT22;9102;53.548;9.926;2023-04-29T14:04:22;14.60;99.90
17954;DHT22;9102;53.548;9.926;2023-04-29T14:06:50;14.60;99.90
17954;DHT22;9102;53.548;9.926;2023-04-29T14:09:17;14.70;99.90
17954;DHT22;9102;53.548;9.926;2023-04-29T14:11:44;14.70;99.90
17954;DHT22;9102;53.548;9.926;2023-04-29T14:14:11;14.60;99.90
17954;DHT22;9102;53.548;9.926;2023-04-29T14:16:38;14.80;99.90
17954;DHT22;9102;53.548;9.926;2023-04-29T14:19:05;14.70;99.90
17954;DHT22;9102;53.548;9.926;2023-04-29T14:21:33;14.60;99.90
17954;DHT22;9102;53.548;9.926;2023-04-29T14:24:02;14.60;99.90
17954;DHT22;9102;53.548;9.926;2023-04-29T14:26:29;14.50;99.90
17954;DHT22;9102;53.548;9.926;2023-04-29T14:28:57;14.50;99.90
17954;DHT22;9102;53.548;9.926;2023-04-29T14:31:24;14.50;99.90
17954;DHT22;9102;53.548;9.926;2023-04-29T14:33:52;14.20;99.90
17954;DHT22;9102;53.548;9.926;2023-04-29T14:36:19;14.30;99.90
17954;DHT22;9102;53.548;9.926;2023-04-29T14:38:46;14.40;99.90
17954;DHT22;9102;53.548;9.926;2023-04-29T14:41:14;14.40;99.90
17954;DHT22;9102;53.548;9.926;2023-04-29T14:43:41;14.50;99.90
17954;DHT22;9102;53.548;9.926;2023-04-29T14:46:10;14.30;99.90
17954;DHT22;9102;53.548;9.926;2023-04-29T14:48:37;14.40;99.90
17954;DHT22;9102;53.548;9.926;2023-04-29T14:51:05;14.30;99.90
17954;DHT22;9102;53.548;9.926;2023-04-29T14:53:32;14.30;99.90
17954;DHT22;9102;53.548;9.926;2023-04-29T14:55:59;14.40;99.90
17954;DHT22;9102;53.548;9.926;2023-04-29T14:58:27;14.50;99.90
17954;DHT22;9102;53.548;9.926;2023-04-29T15:00:54;14.60;99.90
17954;DHT22;9102;53.548;9.926;2023-04-29T15:03:21;14.60;99.90
17954;DHT22;9102;53.548;9.926;2023-04-29T15:05:48;14.80;99.90
17954;DHT22;9102;53.548;9.926;2023-04-29T15:08:15;14.70;99.90
17954;DHT22;9102;53.548;9.926;2023-04-29T15:10:42;14.60;99.90
17954;DHT22;9102;53.548;9.926;2023-04-29T15:13:10;14.70;99.90
17954;DHT22;9102;53.548;9.926;2023-04-29T15:15:38;14.70;99.90
17954;DHT22;9102;53.548;9.926;2023-04-29T15:18:05;14.60;99.90
17954;DHT22;9102;53.548;9.926;2023-04-29T15:20:33;14.50;99.90
17954;DHT22;9102;53.548;9.926;2023-04-29T15:23:00;14.30;99.90
17954;DHT22;9102;53.548;9.926;2023-04-29T15:25:28;14.00;99.90
17954;DHT22;9102;53.548;9.926;2023-04-29T15:27:55;14.00;99.90
17954;DHT22;9102;53.548;9.926;2023-04-29T15:30:24;14.00;99.90
17954;DHT22;9102;53.548;9.926;2023-04-29T15:32:52;14.00;99.90
17954;DHT22;9102;53.548;9.926;2023-04-29T15:35:19;13.90;99.90
17954;DHT22;9102;53.548;9.926;2023-04-29T15:37:46;13.80;99.90
17954;DHT22;9102;53.548;9.926;2023-04-29T15:40:13;13.60;99.90
17954;DHT22;9102;53.548;9.926;2023-04-29T15:42:41;13.40;99.90
17954;DHT22;9102;53.548;9.926;2023-04-29T15:45:08;13.50;99.90
17954;DHT22;9102;53.548;9.926;2023-04-29T15:47:35;13.50;99.90
17954;DHT22;9102;53.548;9.926;2023-04-29T15:50:04;13.70;99.90
17954;DHT22;9102;53.548;9.926;2023-04-29T15:52:31;13.80;99.90
17954;DHT22;9102;53.548;9.926;2023-04-29T15:54:58;14.00;99.90
17954;DHT22;9102;53.548;9.926;2023-04-29T15:57:25;14.10;99.90